sensor_id;sensor_type;location;lat;lon;timestamp;P1;durP1;ratioP1;P2;durP2;ratioP2
53056;SDS011;38940;50.096;4.012;2023-04-03T00:01:57;5.05;;;2.97;;
53056;SDS011;38940;50.096;4.012;2023-04-03T00:04:23;6.57;;;3.00;;
53056;SDS011;38940;50.096;4.012;2023-04-03T00:06:49;7.03;;;3.05;;
53056;SDS011;38940;50.096;4.012;2023-04-03T00:09:16;6.32;;;3.28;;
53056;SDS011;38940;50.096;4.012;2023-04-03T00:11:42;7.80;;;3.25;;
53056;SDS011;38940;50.096;4.012;2023-04-03T00:14:08;6.70;;;3.47;;
53056;SDS011;38940;50.096;4.012;2023-04-03T00:16:34;7.15;;;3.00;;
53056;SDS011;38940;50.096;4.012;2023-04-03T00:19:00;5.33;;;3.20;;
53056;SDS011;38940;50.096;4.012;2023-04-03T00:21:26;8.43;;;3.70;;
53056;SDS011;38940;50.096;4.012;2023-04-03T00:23:52;7.43;;;3.67;;
53056;SDS011;38940;50.096;4.012;2023-04-03T00:26:18;8.13;;;3.38;;
53056;SDS011;38940;50.096;4.012;2023-04-03T00:28:44;5.93;;;3.10;;
53056;SDS011;38940;50.096;4.012;2023-04-03T00:31:10;5.28;;;3.00;;
53056;SDS011;38940;50.096;4.012;2023-04-03T00:33:39;8.32;;;3.17;;
53056;SDS011;38940;50.096;4.012;2023-04-03T00:36:09;5.30;;;3.20;;
53056;SDS011;38940;50.096;4.012;2023-04-03T00:38:35;5.90;;;3.17;;
53056;SDS011;38940;50.096;4.012;2023-04-03T00:41:01;6.80;;;3.13;;
53056;SDS011;38940;50.096;4.012;2023-04-03T00:43:27;7.10;;;3.40;;
53056;SDS011;38940;50.096;4.012;2023-04-03T00:45:54;9.05;;;3.55;;
53056;SDS011;38940;50.096;4.012;2023-04-03T00:48:28;5.72;;;3.28;;
53056;SDS011;38940;50.096;4.012;2023-04-03T00:50:54;4.85;;;3.00;;
53056;SDS011;38940;50.096;4.012;2023-04-03T00:53:23;7.00;;;4.10;;
53056;SDS011;38940;50.096;4.012;2023-04-03T00:55:50;6.17;;;3.50;;
53056;SDS011;38940;50.096;4.012;2023-04-03T00:58:17;8.52;;;3.50;;
53056;SDS011;38940;50.096;4.012;2023-04-03T01:00:46;5.57;;;3.20;;
53056;SDS011;38940;50.096;4.012;2023-04-03T01:03:13;6.82;;;3.42;;
53056;SDS011;38940;50.096;4.012;2023-04-03T01:05:40;7.68;;;3.70;;
53056;SDS011;38940;50.096;4.012;2023-04-03T01:08:06;8.88;;;4.35;;
53056;SDS011;38940;50.096;4.012;2023-04-03T01:10:32;7.60;;;4.10;;
53056;SDS011;38940;50.096;4.012;2023-04-03T01:12:58;9.27;;;4.38;;
53056;SDS011;38940;50.096;4.012;2023-04-03T01:15:26;7.23;;;3.70;;
53056;SDS011;38940;50.096;4.012;2023-04-03T01:17:55;7.13;;;3.95;;
53056;SDS011;38940;50.096;4.012;2023-04-03T01:25:56;6.45;;;4.32;;
53056;SDS011;38940;50.096;4.012;2023-04-03T01:28:23;7.13;;;4.00;;
53056;SDS011;38940;50.096;4.012;2023-04-03T01:30:56;6.18;;;3.63;;
53056;SDS011;38940;50.096;4.012;2023-04-03T01:33:24;6.93;;;3.80;;
53056;SDS011;38940;50.096;4.012;2023-04-03T01:35:51;8.00;;;3.60;;
53056;SDS011;38940;50.096;4.012;2023-04-03T01:38:17;7.32;;;3.90;;
53056;SDS011;38940;50.096;4.012;2023-04-03T01:40:43;6.43;;;4.00;;
53056;SDS011;38940;50.096;4.012;2023-04-03T01:43:08;7.78;;;3.72;;
53056;SDS011;38940;50.096;4.012;2023-04-03T01:45:35;6.35;;;3.90;;
53056;SDS011;38940;50.096;4.012;2023-04-03T01:48:01;7.28;;;3.60;;
53056;SDS011;38940;50.096;4.012;2023-04-03T01:50:27;7.57;;;3.80;;
53056;SDS011;38940;50.096;4.012;2023-04-03T01:52:53;7.53;;;3.90;;
53056;SDS011;38940;50.096;4.012;2023-04-03T01:55:19;6.47;;;3.83;;
53056;SDS011;38940;50.096;4.012;2023-04-03T01:57:45;7.73;;;4.17;;
53056;SDS011;38940;50.096;4.012;2023-04-03T02:00:11;6.95;;;4.28;;
53056;SDS011;38940;50.096;4.012;2023-04-03T02:02:37;7.03;;;4.28;;
53056;SDS011;38940;50.096;4.012;2023-04-03T02:05:03;7.60;;;4.13;;
53056;SDS011;38940;50.096;4.012;2023-04-03T02:07:29;6.72;;;4.22;;
53056;SDS011;38940;50.096;4.012;2023-04-03T02:09:55;7.47;;;4.03;;
53056;SDS011;38940;50.096;4.012;2023-04-03T02:12:21;6.40;;;4.10;;
53056;SDS011;38940;50.096;4.012;2023-04-03T02:14:47;7.70;;;4.10;;
53056;SDS011;38940;50.096;4.012;2023-04-03T02:17:13;9.73;;;4.35;;
53056;SDS011;38940;50.096;4.012;2023-04-03T02:19:40;6.17;;;4.20;;
53056;SDS011;38940;50.096;4.012;2023-04-03T02:22:06;7.83;;;4.40;;
53056;SDS011;38940;50.096;4.012;2023-04-03T02:24:32;7.57;;;4.18;;
53056;SDS011;38940;50.096;4.012;2023-04-03T02:26:58;7.65;;;4.85;;
53056;SDS011;38940;50.096;4.012;2023-04-03T02:29:24;6.87;;;4.20;;
53056;SDS011;38940;50.096;4.012;2023-04-03T02:31:50;9.70;;;4.97;;
53056;SDS011;38940;50.096;4.012;2023-04-03T02:34:16;7.28;;;4.70;;
53056;SDS011;38940;50.096;4.012;2023-04-03T02:36:42;6.68;;;4.22;;
53056;SDS011;38940;50.096;4.012;2023-04-03T02:39:09;8.13;;;4.53;;
53056;SDS011;38940;50.096;4.012;2023-04-03T02:41:35;8.90;;;4.75;;
53056;SDS011;38940;50.096;4.012;2023-04-03T02:44:02;5.77;;;4.57;;
53056;SDS011;38940;50.096;4.012;2023-04-03T02:46:28;8.45;;;5.03;;
53056;SDS011;38940;50.096;4.012;2023-04-03T02:48:54;9.25;;;5.00;;
53056;SDS011;38940;50.096;4.012;2023-04-03T02:51:20;7.22;;;4.68;;
53056;SDS011;38940;50.096;4.012;2023-04-03T02:53:47;6.97;;;4.68;;
53056;SDS011;38940;50.096;4.012;2023-04-03T02:56:13;8.25;;;4.95;;
53056;SDS011;38940;50.096;4.012;2023-04-03T02:58:40;8.65;;;5.20;;
53056;SDS011;38940;50.096;4.012;2023-04-03T03:01:06;9.18;;;4.93;;
53056;SDS011;38940;50.096;4.012;2023-04-03T03:03:32;8.85;;;5.00;;
53056;SDS011;38940;50.096;4.012;2023-04-03T03:06:05;9.02;;;5.07;;
53056;SDS011;38940;50.096;4.012;2023-04-03T03:08:32;8.47;;;5.00;;
53056;SDS011;38940;50.096;4.012;2023-04-03T03:10:58;6.55;;;4.53;;
53056;SDS011;38940;50.096;4.012;2023-04-03T03:13:24;7.32;;;4.80;;
53056;SDS011;38940;50.096;4.012;2023-04-03T03:15:50;7.13;;;4.60;;
53056;SDS011;38940;50.096;4.012;2023-04-03T03:18:16;6.90;;;4.50;;
53056;SDS011;38940;50.096;4.012;2023-04-03T03:20:42;10.80;;;5.20;;
53056;SDS011;38940;50.096;4.012;2023-04-03T03:23:09;8.10;;;4.97;;
53056;SDS011;38940;50.096;4.012;2023-04-03T03:25:38;7.47;;;4.73;;
53056;SDS011;38940;50.096;4.012;2023-04-03T03:28:05;7.75;;;4.85;;
53056;SDS011;38940;50.096;4.012;2023-04-03T03:30:31;9.55;;;4.65;;
53056;SDS011;38940;50.096;4.012;2023-04-03T03:32:57;8.60;;;4.40;;
53056;SDS011;38940;50.096;4.012;2023-04-03T03:35:23;7.88;;;4.53;;
53056;SDS011;38940;50.096;4.012;2023-04-03T03:37:49;7.35;;;4.60;;
53056;SDS011;38940;50.096;4.012;2023-04-03T03:40:15;6.43;;;4.15;;
53056;SDS011;38940;50.096;4.012;2023-04-03T03:42:41;7.97;;;4.40;;
53056;SDS011;38940;50.096;4.012;2023-04-03T03:45:07;8.35;;;4.43;;
53056;SDS011;38940;50.096;4.012;2023-04-03T03:47:33;6.00;;;3.88;;
53056;SDS011;38940;50.096;4.012;2023-04-03T03:49:59;9.27;;;4.40;;
53056;SDS011;38940;50.096;4.012;2023-04-03T03:52:26;8.48;;;4.45;;
53056;SDS011;38940;50.096;4.012;2023-04-03T03:54:52;7.15;;;4.15;;
53056;SDS011;38940;50.096;4.012;2023-04-03T03:57:18;8.07;;;4.18;;
53056;SDS011;38940;50.096;4.012;2023-04-03T03:59:44;7.50;;;4.45;;
53056;SDS011;38940;50.096;4.012;2023-04-03T04:02:10;7.70;;;4.40;;
53056;SDS011;38940;50.096;4.012;2023-04-03T04:04:37;9.43;;;4.50;;
53056;SDS011;38940;50.096;4.012;2023-04-03T04:07:03;7.45;;;4.20;;
53056;SDS011;38940;50.096;4.012;2023-04-03T04:09:29;6.85;;;4.45;;
53056;SDS011;38940;50.096;4.012;2023-04-03T04:11:55;6.82;;;4.30;;
53056;SDS011;38940;50.096;4.012;2023-04-03T04:14:21;8.40;;;4.30;;
53056;SDS011;38940;50.096;4.012;2023-04-03T04:16:47;5.57;;;4.18;;
53056;SDS011;38940;50.096;4.012;2023-04-03T04:19:13;7.33;;;4.20;;
53056;SDS011;38940;50.096;4.012;2023-04-03T04:21:39;8.35;;;4.50;;
53056;SDS011;38940;50.096;4.012;2023-04-03T04:24:06;6.13;;;4.20;;
53056;SDS011;38940;50.096;4.012;2023-04-03T04:26:32;6.60;;;4.40;;
53056;SDS011;38940;50.096;4.012;2023-04-03T04:28:58;8.90;;;4.22;;
53056;SDS011;38940;50.096;4.012;2023-04-03T04:31:24;6.30;;;4.10;;
53056;SDS011;38940;50.096;4.012;2023-04-03T04:33:50;6.30;;;3.85;;
53056;SDS011;38940;50.096;4.012;2023-04-03T04:36:16;7.18;;;4.35;;
53056;SDS011;38940;50.096;4.012;2023-04-03T04:38:42;7.28;;;4.63;;
53056;SDS011;38940;50.096;4.012;2023-04-03T04:41:08;7.68;;;5.28;;
53056;SDS011;38940;50.096;4.012;2023-04-03T04:43:34;6.80;;;4.25;;
53056;SDS011;38940;50.096;4.012;2023-04-03T04:46:07;7.32;;;4.00;;
53056;SDS011;38940;50.096;4.012;2023-04-03T04:48:36;8.67;;;4.37;;
53056;SDS011;38940;50.096;4.012;2023-04-03T04:51:02;5.60;;;3.93;;
53056;SDS011;38940;50.096;4.012;2023-04-03T04:53:29;7.28;;;4.40;;
53056;SDS011;38940;50.096;4.012;2023-04-03T04:55:55;5.55;;;3.80;;
53056;SDS011;38940;50.096;4.012;2023-04-03T04:58:21;6.90;;;4.57;;
53056;SDS011;38940;50.096;4.012;2023-04-03T05:00:47;9.57;;;5.00;;
53056;SDS011;38940;50.096;4.012;2023-04-03T05:03:13;8.55;;;5.20;;
53056;SDS011;38940;50.096;4.012;2023-04-03T05:05:39;7.97;;;5.25;;
53056;SDS011;38940;50.096;4.012;2023-04-03T05:08:05;6.13;;;4.22;;
53056;SDS011;38940;50.096;4.012;2023-04-03T05:10:33;6.37;;;4.03;;
53056;SDS011;38940;50.096;4.012;2023-04-03T05:12:59;7.30;;;3.60;;
53056;SDS011;38940;50.096;4.012;2023-04-03T05:15:25;7.53;;;3.72;;
53056;SDS011;38940;50.096;4.012;2023-04-03T05:17:51;5.05;;;3.50;;
53056;SDS011;38940;50.096;4.012;2023-04-03T05:20:17;6.10;;;3.90;;
53056;SDS011;38940;50.096;4.012;2023-04-03T05:22:43;5.00;;;3.07;;
53056;SDS011;38940;50.096;4.012;2023-04-03T05:25:09;6.23;;;3.30;;
53056;SDS011;38940;50.096;4.012;2023-04-03T05:27:35;7.07;;;3.40;;
53056;SDS011;38940;50.096;4.012;2023-04-03T05:30:02;6.63;;;3.23;;
53056;SDS011;38940;50.096;4.012;2023-04-03T05:32:29;6.30;;;3.28;;
53056;SDS011;38940;50.096;4.012;2023-04-03T05:34:55;6.82;;;3.08;;
53056;SDS011;38940;50.096;4.012;2023-04-03T05:37:21;5.32;;;3.20;;
53056;SDS011;38940;50.096;4.012;2023-04-03T05:39:47;7.30;;;2.93;;
53056;SDS011;38940;50.096;4.012;2023-04-03T05:42:13;5.20;;;3.30;;
53056;SDS011;38940;50.096;4.012;2023-04-03T05:44:40;6.22;;;2.92;;
53056;SDS011;38940;50.096;4.012;2023-04-03T05:47:06;5.22;;;3.13;;
53056;SDS011;38940;50.096;4.012;2023-04-03T05:49:32;6.80;;;3.70;;
53056;SDS011;38940;50.096;4.012;2023-04-03T05:51:58;8.95;;;3.50;;
53056;SDS011;38940;50.096;4.012;2023-04-03T05:54:28;5.70;;;3.40;;
53056;SDS011;38940;50.096;4.012;2023-04-03T05:56:54;6.97;;;2.97;;
53056;SDS011;38940;50.096;4.012;2023-04-03T05:59:21;7.35;;;3.20;;
53056;SDS011;38940;50.096;4.012;2023-04-03T06:01:47;4.53;;;2.88;;
53056;SDS011;38940;50.096;4.012;2023-04-03T06:04:13;6.82;;;3.30;;
53056;SDS011;38940;50.096;4.012;2023-04-03T06:06:46;7.28;;;3.00;;
53056;SDS011;38940;50.096;4.012;2023-04-03T06:09:13;4.68;;;2.60;;
53056;SDS011;38940;50.096;4.012;2023-04-03T06:11:39;5.03;;;2.40;;
53056;SDS011;38940;50.096;4.012;2023-04-03T06:14:07;5.97;;;2.70;;
53056;SDS011;38940;50.096;4.012;2023-04-03T06:16:33;5.50;;;2.60;;
53056;SDS011;38940;50.096;4.012;2023-04-03T06:18:59;7.30;;;2.80;;
53056;SDS011;38940;50.096;4.012;2023-04-03T06:21:25;5.03;;;2.80;;
53056;SDS011;38940;50.096;4.012;2023-04-03T06:23:51;5.47;;;2.50;;
53056;SDS011;38940;50.096;4.012;2023-04-03T06:26:17;5.45;;;2.50;;
53056;SDS011;38940;50.096;4.012;2023-04-03T06:28:43;4.20;;;2.70;;
53056;SDS011;38940;50.096;4.012;2023-04-03T06:31:09;6.57;;;2.80;;
53056;SDS011;38940;50.096;4.012;2023-04-03T06:33:35;6.05;;;2.72;;
53056;SDS011;38940;50.096;4.012;2023-04-03T06:36:03;5.28;;;2.53;;
53056;SDS011;38940;50.096;4.012;2023-04-03T06:38:29;6.57;;;2.60;;
53056;SDS011;38940;50.096;4.012;2023-04-03T06:40:55;5.22;;;2.38;;
53056;SDS011;38940;50.096;4.012;2023-04-03T06:43:21;5.53;;;2.50;;
53056;SDS011;38940;50.096;4.012;2023-04-03T06:45:48;5.53;;;2.33;;
53056;SDS011;38940;50.096;4.012;2023-04-03T06:48:14;4.13;;;2.30;;
53056;SDS011;38940;50.096;4.012;2023-04-03T06:50:40;5.18;;;2.50;;
53056;SDS011;38940;50.096;4.012;2023-04-03T06:53:06;5.22;;;2.40;;
53056;SDS011;38940;50.096;4.012;2023-04-03T06:55:32;4.43;;;2.13;;
53056;SDS011;38940;50.096;4.012;2023-04-03T06:57:58;6.25;;;2.13;;
53056;SDS011;38940;50.096;4.012;2023-04-03T07:00:24;4.88;;;2.00;;
53056;SDS011;38940;50.096;4.012;2023-04-03T07:02:51;3.30;;;1.95;;
53056;SDS011;38940;50.096;4.012;2023-04-03T07:05:17;6.05;;;2.10;;
53056;SDS011;38940;50.096;4.012;2023-04-03T07:07:43;3.57;;;1.90;;
53056;SDS011;38940;50.096;4.012;2023-04-03T07:10:09;5.22;;;1.95;;
53056;SDS011;38940;50.096;4.012;2023-04-03T07:12:36;4.82;;;2.05;;
53056;SDS011;38940;50.096;4.012;2023-04-03T07:15:03;5.00;;;2.00;;
53056;SDS011;38940;50.096;4.012;2023-04-03T07:17:29;4.72;;;2.33;;
53056;SDS011;38940;50.096;4.012;2023-04-03T07:19:55;3.55;;;2.05;;
53056;SDS011;38940;50.096;4.012;2023-04-03T07:22:21;6.85;;;2.38;;
53056;SDS011;38940;50.096;4.012;2023-04-03T07:24:47;4.85;;;2.40;;
53056;SDS011;38940;50.096;4.012;2023-04-03T07:27:13;4.80;;;2.40;;
53056;SDS011;38940;50.096;4.012;2023-04-03T07:29:39;7.37;;;2.30;;
53056;SDS011;38940;50.096;4.012;2023-04-03T07:32:05;7.03;;;2.10;;
53056;SDS011;38940;50.096;4.012;2023-04-03T07:34:31;5.63;;;2.30;;
53056;SDS011;38940;50.096;4.012;2023-04-03T07:36:58;5.65;;;2.50;;
53056;SDS011;38940;50.096;4.012;2023-04-03T07:39:24;5.35;;;2.20;;
53056;SDS011;38940;50.096;4.012;2023-04-03T07:41:50;3.80;;;2.10;;
53056;SDS011;38940;50.096;4.012;2023-04-03T07:44:16;3.78;;;2.08;;
53056;SDS011;38940;50.096;4.012;2023-04-03T07:46:42;3.88;;;2.35;;
53056;SDS011;38940;50.096;4.012;2023-04-03T07:49:08;4.40;;;2.35;;
53056;SDS011;38940;50.096;4.012;2023-04-03T07:51:35;5.15;;;2.28;;
53056;SDS011;38940;50.096;4.012;2023-04-03T07:54:01;3.63;;;2.00;;
53056;SDS011;38940;50.096;4.012;2023-04-03T07:56:27;5.38;;;2.20;;
53056;SDS011;38940;50.096;4.012;2023-04-03T07:58:53;7.07;;;2.33;;
53056;SDS011;38940;50.096;4.012;2023-04-03T08:01:19;4.15;;;1.90;;
53056;SDS011;38940;50.096;4.012;2023-04-03T08:03:45;4.05;;;2.00;;
53056;SDS011;38940;50.096;4.012;2023-04-03T08:06:11;6.05;;;2.00;;
53056;SDS011;38940;50.096;4.012;2023-04-03T08:08:39;4.50;;;2.03;;
53056;SDS011;38940;50.096;4.012;2023-04-03T08:11:06;4.38;;;1.60;;
53056;SDS011;38940;50.096;4.012;2023-04-03T08:13:34;6.05;;;1.80;;
53056;SDS011;38940;50.096;4.012;2023-04-03T08:16:08;3.40;;;1.40;;
53056;SDS011;38940;50.096;4.012;2023-04-03T08:18:34;4.67;;;1.73;;
53056;SDS011;38940;50.096;4.012;2023-04-03T08:21:00;4.65;;;1.80;;
53056;SDS011;38940;50.096;4.012;2023-04-03T08:23:26;5.28;;;2.00;;
53056;SDS011;38940;50.096;4.012;2023-04-03T08:25:52;2.55;;;1.50;;
53056;SDS011;38940;50.096;4.012;2023-04-03T08:28:18;6.68;;;1.60;;
53056;SDS011;38940;50.096;4.012;2023-04-03T08:30:44;2.88;;;1.45;;
53056;SDS011;38940;50.096;4.012;2023-04-03T08:33:11;3.80;;;1.83;;
53056;SDS011;38940;50.096;4.012;2023-04-03T08:35:40;3.63;;;1.30;;
53056;SDS011;38940;50.096;4.012;2023-04-03T08:38:07;4.00;;;1.70;;
53056;SDS011;38940;50.096;4.012;2023-04-03T08:40:33;3.03;;;1.20;;
53056;SDS011;38940;50.096;4.012;2023-04-03T08:45:27;2.10;;;1.27;;
53056;SDS011;38940;50.096;4.012;2023-04-03T08:50:25;3.53;;;1.40;;
53056;SDS011;38940;50.096;4.012;2023-04-03T08:52:56;4.03;;;1.55;;
53056;SDS011;38940;50.096;4.012;2023-04-03T08:55:25;4.40;;;1.52;;
53056;SDS011;38940;50.096;4.012;2023-04-03T08:58:02;3.53;;;1.33;;
53056;SDS011;38940;50.096;4.012;2023-04-03T09:00:49;5.57;;;1.53;;
53056;SDS011;38940;50.096;4.012;2023-04-03T09:03:16;3.03;;;1.35;;
53056;SDS011;38940;50.096;4.012;2023-04-03T09:05:57;4.10;;;1.55;;
53056;SDS011;38940;50.096;4.012;2023-04-03T09:08:29;4.03;;;1.60;;
53056;SDS011;38940;50.096;4.012;2023-04-03T09:13:47;3.78;;;1.30;;
53056;SDS011;38940;50.096;4.012;2023-04-03T09:16:20;4.30;;;1.45;;
53056;SDS011;38940;50.096;4.012;2023-04-03T09:18:48;2.28;;;1.10;;
53056;SDS011;38940;50.096;4.012;2023-04-03T09:21:23;3.30;;;1.40;;
53056;SDS011;38940;50.096;4.012;2023-04-03T09:23:53;3.10;;;1.30;;
53056;SDS011;38940;50.096;4.012;2023-04-03T09:26:23;4.60;;;1.50;;
53056;SDS011;38940;50.096;4.012;2023-04-03T09:28:51;2.55;;;0.90;;
53056;SDS011;38940;50.096;4.012;2023-04-03T09:33:48;3.27;;;1.30;;
53056;SDS011;38940;50.096;4.012;2023-04-03T09:36:36;4.60;;;1.27;;
53056;SDS011;38940;50.096;4.012;2023-04-03T09:39:03;3.20;;;1.00;;
53056;SDS011;38940;50.096;4.012;2023-04-03T09:41:29;2.38;;;1.05;;
53056;SDS011;38940;50.096;4.012;2023-04-03T09:43:57;3.03;;;1.00;;
53056;SDS011;38940;50.096;4.012;2023-04-03T09:49:00;5.50;;;1.20;;
53056;SDS011;38940;50.096;4.012;2023-04-03T09:51:27;2.17;;;0.83;;
53056;SDS011;38940;50.096;4.012;2023-04-03T09:53:53;4.45;;;0.90;;
53056;SDS011;38940;50.096;4.012;2023-04-03T09:56:21;4.10;;;1.10;;
53056;SDS011;38940;50.096;4.012;2023-04-03T09:58:48;4.03;;;1.10;;
53056;SDS011;38940;50.096;4.012;2023-04-03T10:01:23;3.88;;;1.10;;
53056;SDS011;38940;50.096;4.012;2023-04-03T10:06:30;3.20;;;1.10;;
53056;SDS011;38940;50.096;4.012;2023-04-03T10:09:00;4.80;;;1.02;;
53056;SDS011;38940;50.096;4.012;2023-04-03T10:11:27;3.15;;;1.10;;
53056;SDS011;38940;50.096;4.012;2023-04-03T10:16:23;2.88;;;0.98;;
53056;SDS011;38940;50.096;4.012;2023-04-03T10:19:53;7.00;;;1.30;;
53056;SDS011;38940;50.096;4.012;2023-04-03T10:21:55;2.22;;;0.90;;
53056;SDS011;38940;50.096;4.012;2023-04-03T10:27:16;4.15;;;1.20;;
53056;SDS011;38940;50.096;4.012;2023-04-03T10:34:54;3.93;;;1.40;;
53056;SDS011;38940;50.096;4.012;2023-04-03T10:37:37;4.45;;;1.48;;
53056;SDS011;38940;50.096;4.012;2023-04-03T10:40:12;3.28;;;1.50;;
53056;SDS011;38940;50.096;4.012;2023-04-03T10:45:26;3.45;;;1.20;;
53056;SDS011;38940;50.096;4.012;2023-04-03T10:57:47;3.85;;;1.08;;
53056;SDS011;38940;50.096;4.012;2023-04-03T11:00:18;6.80;;;1.42;;
53056;SDS011;38940;50.096;4.012;2023-04-03T11:02:48;3.28;;;1.25;;
53056;SDS011;38940;50.096;4.012;2023-04-03T11:05:28;4.35;;;1.20;;
53056;SDS011;38940;50.096;4.012;2023-04-03T11:07:56;2.97;;;1.10;;
53056;SDS011;38940;50.096;4.012;2023-04-03T11:10:25;6.38;;;1.20;;
53056;SDS011;38940;50.096;4.012;2023-04-03T11:15:42;4.88;;;1.30;;
53056;SDS011;38940;50.096;4.012;2023-04-03T11:18:21;3.03;;;1.23;;
53056;SDS011;38940;50.096;4.012;2023-04-03T11:23:33;3.97;;;0.90;;
53056;SDS011;38940;50.096;4.012;2023-04-03T11:26:08;2.15;;;1.02;;
53056;SDS011;38940;50.096;4.012;2023-04-03T11:28:35;2.47;;;1.10;;
53056;SDS011;38940;50.096;4.012;2023-04-03T11:31:13;5.70;;;1.50;;
53056;SDS011;38940;50.096;4.012;2023-04-03T11:36:39;3.80;;;1.40;;
53056;SDS011;38940;50.096;4.012;2023-04-03T11:41:50;3.53;;;1.30;;
53056;SDS011;38940;50.096;4.012;2023-04-03T11:44:27;4.13;;;1.20;;
53056;SDS011;38940;50.096;4.012;2023-04-03T11:46:54;3.55;;;0.90;;
53056;SDS011;38940;50.096;4.012;2023-04-03T11:52:09;3.08;;;1.05;;
53056;SDS011;38940;50.096;4.012;2023-04-03T11:54:44;5.05;;;1.10;;
53056;SDS011;38940;50.096;4.012;2023-04-03T11:57:42;3.78;;;1.35;;
53056;SDS011;38940;50.096;4.012;2023-04-03T12:02:54;6.45;;;1.20;;
53056;SDS011;38940;50.096;4.012;2023-04-03T12:05:27;2.53;;;1.10;;
53056;SDS011;38940;50.096;4.012;2023-04-03T12:10:39;2.42;;;1.02;;
53056;SDS011;38940;50.096;4.012;2023-04-03T12:13:15;2.95;;;1.05;;
53056;SDS011;38940;50.096;4.012;2023-04-03T12:15:49;4.87;;;1.50;;
53056;SDS011;38940;50.096;4.012;2023-04-03T12:21:21;4.03;;;1.30;;
53056;SDS011;38940;50.096;4.012;2023-04-03T12:26:34;4.67;;;1.37;;
53056;SDS011;38940;50.096;4.012;2023-04-03T12:29:07;3.55;;;1.40;;
53056;SDS011;38940;50.096;4.012;2023-04-03T12:31:42;3.70;;;1.20;;
53056;SDS011;38940;50.096;4.012;2023-04-03T12:34:15;4.63;;;1.40;;
53056;SDS011;38940;50.096;4.012;2023-04-03T12:39:14;3.25;;;1.30;;
53056;SDS011;38940;50.096;4.012;2023-04-03T12:41:49;4.30;;;1.50;;
53056;SDS011;38940;50.096;4.012;2023-04-03T12:46:49;7.07;;;1.40;;
53056;SDS011;38940;50.096;4.012;2023-04-03T12:49:33;3.90;;;1.48;;
53056;SDS011;38940;50.096;4.012;2023-04-03T12:52:03;5.07;;;1.70;;
53056;SDS011;38940;50.096;4.012;2023-04-03T12:54:37;7.22;;;1.50;;
53056;SDS011;38940;50.096;4.012;2023-04-03T12:57:12;2.45;;;1.23;;
53056;SDS011;38940;50.096;4.012;2023-04-03T12:59:38;4.47;;;1.63;;
53056;SDS011;38940;50.096;4.012;2023-04-03T13:02:12;4.15;;;1.70;;
53056;SDS011;38940;50.096;4.012;2023-04-03T13:04:41;3.90;;;1.30;;
53056;SDS011;38940;50.096;4.012;2023-04-03T13:07:17;2.92;;;1.50;;
53056;SDS011;38940;50.096;4.012;2023-04-03T13:09:44;8.50;;;1.77;;
53056;SDS011;38940;50.096;4.012;2023-04-03T13:12:20;2.85;;;1.30;;
53056;SDS011;38940;50.096;4.012;2023-04-03T13:14:56;4.25;;;1.70;;
53056;SDS011;38940;50.096;4.012;2023-04-03T13:17:23;3.20;;;1.42;;
53056;SDS011;38940;50.096;4.012;2023-04-03T13:19:50;3.72;;;1.10;;
53056;SDS011;38940;50.096;4.012;2023-04-03T13:22:30;3.30;;;1.30;;
53056;SDS011;38940;50.096;4.012;2023-04-03T13:25:03;3.92;;;1.70;;
53056;SDS011;38940;50.096;4.012;2023-04-03T13:27:32;3.13;;;1.70;;
53056;SDS011;38940;50.096;4.012;2023-04-03T13:29:59;2.45;;;1.30;;
53056;SDS011;38940;50.096;4.012;2023-04-03T13:32:26;5.05;;;1.70;;
53056;SDS011;38940;50.096;4.012;2023-04-03T13:34:53;4.63;;;1.52;;
53056;SDS011;38940;50.096;4.012;2023-04-03T13:37:23;4.60;;;1.50;;
53056;SDS011;38940;50.096;4.012;2023-04-03T13:40:00;4.93;;;1.73;;
53056;SDS011;38940;50.096;4.012;2023-04-03T13:42:30;4.55;;;1.60;;
53056;SDS011;38940;50.096;4.012;2023-04-03T13:47:54;4.25;;;1.70;;
53056;SDS011;38940;50.096;4.012;2023-04-03T13:50:21;6.05;;;1.67;;
53056;SDS011;38940;50.096;4.012;2023-04-03T14:00:32;6.00;;;2.03;;
53056;SDS011;38940;50.096;4.012;2023-04-03T14:02:59;6.53;;;2.00;;
53056;SDS011;38940;50.096;4.012;2023-04-03T14:05:25;8.77;;;1.73;;
53056;SDS011;38940;50.096;4.012;2023-04-03T14:07:52;6.00;;;1.80;;
53056;SDS011;38940;50.096;4.012;2023-04-03T14:10:18;8.90;;;1.77;;
53056;SDS011;38940;50.096;4.012;2023-04-03T14:12:44;3.17;;;1.20;;
53056;SDS011;38940;50.096;4.012;2023-04-03T14:15:20;3.03;;;1.30;;
53056;SDS011;38940;50.096;4.012;2023-04-03T14:17:48;4.25;;;1.50;;
53056;SDS011;38940;50.096;4.012;2023-04-03T14:20:16;3.90;;;1.67;;
53056;SDS011;38940;50.096;4.012;2023-04-03T14:22:43;4.25;;;1.55;;
53056;SDS011;38940;50.096;4.012;2023-04-03T14:25:09;4.75;;;1.73;;
53056;SDS011;38940;50.096;4.012;2023-04-03T14:27:40;6.60;;;1.60;;
53056;SDS011;38940;50.096;4.012;2023-04-03T14:30:08;2.80;;;1.50;;
53056;SDS011;38940;50.096;4.012;2023-04-03T14:32:35;4.28;;;1.40;;
53056;SDS011;38940;50.096;4.012;2023-04-03T14:35:01;8.35;;;1.63;;
53056;SDS011;38940;50.096;4.012;2023-04-03T14:37:28;3.07;;;1.30;;
53056;SDS011;38940;50.096;4.012;2023-04-03T14:39:55;4.18;;;1.40;;
53056;SDS011;38940;50.096;4.012;2023-04-03T14:42:23;4.30;;;1.45;;
53056;SDS011;38940;50.096;4.012;2023-04-03T14:44:50;4.55;;;1.50;;
53056;SDS011;38940;50.096;4.012;2023-04-03T14:47:18;3.42;;;1.48;;
53056;SDS011;38940;50.096;4.012;2023-04-03T14:49:45;6.00;;;1.55;;
53056;SDS011;38940;50.096;4.012;2023-04-03T14:52:18;4.20;;;1.52;;
53056;SDS011;38940;50.096;4.012;2023-04-03T14:54:45;5.32;;;1.48;;
53056;SDS011;38940;50.096;4.012;2023-04-03T14:57:11;2.22;;;0.98;;
53056;SDS011;38940;50.096;4.012;2023-04-03T14:59:39;4.40;;;1.20;;
53056;SDS011;38940;50.096;4.012;2023-04-03T15:02:50;3.08;;;1.20;;
53056;SDS011;38940;50.096;4.012;2023-04-03T15:04:51;5.20;;;1.40;;
53056;SDS011;38940;50.096;4.012;2023-04-03T15:07:17;5.28;;;1.10;;
53056;SDS011;38940;50.096;4.012;2023-04-03T15:09:43;6.60;;;1.42;;
53056;SDS011;38940;50.096;4.012;2023-04-03T15:12:12;4.40;;;1.40;;
53056;SDS011;38940;50.096;4.012;2023-04-03T15:14:38;2.55;;;1.30;;
53056;SDS011;38940;50.096;4.012;2023-04-03T15:17:04;3.60;;;1.40;;
53056;SDS011;38940;50.096;4.012;2023-04-03T15:19:32;3.85;;;1.40;;
53056;SDS011;38940;50.096;4.012;2023-04-03T15:22:01;5.68;;;1.70;;
53056;SDS011;38940;50.096;4.012;2023-04-03T15:24:27;5.50;;;1.42;;
53056;SDS011;38940;50.096;4.012;2023-04-03T15:26:53;4.30;;;1.70;;
53056;SDS011;38940;50.096;4.012;2023-04-03T15:29:20;4.70;;;1.52;;
53056;SDS011;38940;50.096;4.012;2023-04-03T15:31:46;3.23;;;1.17;;
53056;SDS011;38940;50.096;4.012;2023-04-03T15:34:12;3.88;;;1.10;;
53056;SDS011;38940;50.096;4.012;2023-04-03T15:36:38;3.10;;;1.42;;
53056;SDS011;38940;50.096;4.012;2023-04-03T15:39:04;3.08;;;1.02;;
53056;SDS011;38940;50.096;4.012;2023-04-03T15:41:30;5.88;;;1.70;;
53056;SDS011;38940;50.096;4.012;2023-04-03T15:43:56;3.97;;;1.30;;
53056;SDS011;38940;50.096;4.012;2023-04-03T15:46:22;4.00;;;1.20;;
53056;SDS011;38940;50.096;4.012;2023-04-03T15:48:48;4.95;;;1.20;;
53056;SDS011;38940;50.096;4.012;2023-04-03T15:51:14;3.92;;;1.15;;
53056;SDS011;38940;50.096;4.012;2023-04-03T15:53:40;5.00;;;1.23;;
53056;SDS011;38940;50.096;4.012;2023-04-03T15:56:07;4.40;;;1.30;;
53056;SDS011;38940;50.096;4.012;2023-04-03T15:58:34;5.60;;;1.63;;
53056;SDS011;38940;50.096;4.012;2023-04-03T16:01:00;3.90;;;1.60;;
53056;SDS011;38940;50.096;4.012;2023-04-03T16:03:27;4.43;;;1.40;;
53056;SDS011;38940;50.096;4.012;2023-04-03T16:05:53;6.70;;;1.70;;
53056;SDS011;38940;50.096;4.012;2023-04-03T16:08:19;3.53;;;1.42;;
53056;SDS011;38940;50.096;4.012;2023-04-03T16:10:45;7.32;;;1.85;;
53056;SDS011;38940;50.096;4.012;2023-04-03T16:13:12;2.67;;;1.13;;
53056;SDS011;38940;50.096;4.012;2023-04-03T16:15:38;7.80;;;1.73;;
53056;SDS011;38940;50.096;4.012;2023-04-03T16:18:04;5.05;;;1.42;;